Time;durP1;ratioP1;P1;durP2;ratioP2;P2;SDS_P1;SDS_P2;PMS_P1;PMS_P2;Temp;Humidity;BMP_temperature;BMP_pressure;BME280_temperature;BME280_humidity;BME280_pressure;Samples;Min_cycle;Max_cycle;Signal;HPM_P1;HPM_P2
2022/11/21 00:00:26;;;;;;;6.00;4.57;;;16.60;38.10;;;;;;5056884;28;20052;-55
2022/11/21 00:02:52;;;;;;;5.57;4.78;;;16.60;38.10;;;;;;5056503;28;20032;-55
2022/11/21 00:05:18;;;;;;;5.33;4.63;;;16.60;38.10;;;;;;5057218;28;20040;-54
2022/11/21 00:07:48;;;;;;;5.93;4.45;;;16.60;38.10;;;;;;5056886;28;20032;-54
2022/11/21 00:10:14;;;;;;;6.03;4.53;;;16.60;38.10;;;;;;5056731;28;20029;-59
2022/11/21 00:12:40;;;;;;;4.20;3.70;;;16.60;38.10;;;;;;5056243;28;20122;-57
2022/11/21 00:15:06;;;;;;;5.18;4.60;;;16.60;38.10;;;;;;5056757;28;20460;-55
2022/11/21 00:17:32;;;;;;;5.57;4.47;;;16.60;38.10;;;;;;5056464;28;20057;-58
2022/11/21 00:19:58;;;;;;;5.05;4.50;;;16.60;38.10;;;;;;5056560;28;20058;-57
2022/11/21 00:22:24;;;;;;;5.28;4.40;;;16.60;38.10;;;;;;5056561;28;20086;-57
2022/11/21 00:24:49;;;;;;;5.20;4.10;;;16.60;38.10;;;;;;5039074;28;20033;-56
2022/11/21 00:27:15;;;;;;;5.80;4.53;;;16.60;38.10;;;;;;5022331;28;20108;-58
2022/11/21 00:29:41;;;;;;;5.43;4.90;;;16.60;38.10;;;;;;5056512;28;20456;-52
2022/11/21 00:32:07;;;;;;;5.97;4.60;;;16.60;38.00;;;;;;5038823;28;20045;-59
2022/11/21 00:34:32;;;;;;;5.53;4.80;;;16.60;38.00;;;;;;5022067;28;20040;-57
2022/11/21 00:36:58;;;;;;;5.60;4.90;;;16.60;38.10;;;;;;5056085;28;20040;-58
2022/11/21 00:39:24;;;;;;;5.23;4.03;;;16.60;38.00;;;;;;5038859;28;20033;-59
2022/11/21 00:41:50;;;;;;;5.13;4.57;;;16.60;38.00;;;;;;5056040;28;20359;-57
2022/11/21 00:44:16;;;;;;;5.28;4.50;;;16.60;38.00;;;;;;5055901;28;20039;-57
2022/11/21 00:46:41;;;;;;;5.83;4.70;;;16.60;38.00;;;;;;5055674;28;20095;-56
2022/11/21 00:49:07;;;;;;;6.03;5.40;;;16.60;38.00;;;;;;5055979;28;20028;-53
2022/11/21 00:51:33;;;;;;;5.32;4.60;;;16.60;38.00;;;;;;5055786;28;20048;-59
2022/11/21 00:53:59;;;;;;;5.30;4.37;;;16.60;38.00;;;;;;5056348;28;20170;-59
2022/11/21 00:56:25;;;;;;;5.30;4.80;;;16.60;38.00;;;;;;5055749;28;20053;-54
2022/11/21 00:58:50;;;;;;;5.45;4.63;;;16.60;38.00;;;;;;5021831;28;20028;-56
2022/11/21 01:01:16;;;;;;;5.40;4.70;;;16.60;38.00;;;;;;5038156;28;20044;-55
2022/11/21 01:03:45;;;;;;;5.82;4.63;;;16.60;38.00;;;;;;5038271;28;20032;-57
2022/11/21 01:06:12;;;;;;;5.05;4.50;;;16.60;38.00;;;;;;5038012;28;20037;-58
2022/11/21 01:08:41;;;;;;;5.40;4.70;;;16.60;38.00;;;;;;5055671;28;20028;-59
2022/11/21 01:11:10;;;;;;;5.30;4.65;;;16.60;38.00;;;;;;5037883;28;20036;-59
2022/11/21 01:13:36;;;;;;;5.20;4.50;;;16.60;38.00;;;;;;5054686;28;20025;-56
2022/11/21 01:16:07;;;;;;;5.43;4.47;;;16.60;38.60;;;;;;5055385;28;20028;-55
2022/11/21 01:18:34;;;;;;;6.47;5.20;;;16.60;38.00;;;;;;5038082;28;20479;-56
2022/11/21 01:21:06;;;;;;;6.05;5.03;;;16.60;38.00;;;;;;5038016;28;20029;-55
2022/11/21 01:23:32;;;;;;;5.43;4.72;;;16.60;38.00;;;;;;5037781;28;20079;-57
2022/11/21 01:26:02;;;;;;;5.72;4.78;;;16.60;38.00;;;;;;5037703;28;20044;-56
2022/11/21 01:28:28;;;;;;;5.22;4.55;;;16.60;38.00;;;;;;5055278;28;20091;-58
2022/11/21 01:30:54;;;;;;;6.00;5.03;;;16.60;38.00;;;;;;5055312;28;20376;-57
2022/11/21 01:33:20;;;;;;;6.05;4.68;;;16.60;38.00;;;;;;5055635;28;20028;-57
2022/11/21 01:35:48;;;;;;;6.38;5.03;;;16.60;38.00;;;;;;5055274;28;20033;-57
2022/11/21 01:38:14;;;;;;;5.38;4.38;;;16.60;38.00;;;;;;5037884;28;20037;-58
2022/11/21 01:40:40;;;;;;;5.95;5.00;;;16.60;38.00;;;;;;5055049;28;20032;-58
2022/11/21 01:43:14;;;;;;;5.63;4.90;;;16.60;38.00;;;;;;5055018;28;20128;-54
2022/11/21 01:45:55;;;;;;;5.90;4.65;;;16.60;38.00;;;;;;5054939;28;20041;-55
2022/11/21 01:48:31;;;;;;;5.85;4.70;;;16.60;38.60;;;;;;5036978;28;20048;-55
2022/11/21 01:51:02;;;;;;;5.55;4.90;;;16.60;38.00;;;;;;5055157;28;20462;-56
2022/11/21 01:53:28;;;;;;;5.30;4.22;;;16.60;38.00;;;;;;5054726;28;20041;-56
2022/11/21 01:55:54;;;;;;;5.77;4.97;;;16.60;38.00;;;;;;5055157;28;20325;-56
2022/11/21 01:58:21;;;;;;;5.97;4.50;;;16.60;38.00;;;;;;5054720;28;20025;-59
2022/11/21 02:00:47;;;;;;;5.43;4.57;;;16.60;38.00;;;;;;5054901;28;20037;-57
2022/11/21 02:03:19;;;;;;;5.10;4.60;;;16.60;38.00;;;;;;5054827;28;20025;-59
2022/11/21 02:05:45;;;;;;;5.78;4.80;;;16.60;38.00;;;;;;5054831;28;20086;-57
2022/11/21 02:08:19;;;;;;;5.90;4.88;;;16.60;38.00;;;;;;5054409;28;20437;-54
2022/11/21 02:11:18;;;;;;;6.77;5.00;;;16.60;38.00;;;;;;5036896;28;20048;-57
2022/11/21 02:13:44;;;;;;;6.05;4.90;;;16.60;38.00;;;;;;5036857;28;20135;-58
2022/11/21 02:16:10;;;;;;;5.03;4.53;;;16.60;38.00;;;;;;5037574;28;20405;-55
2022/11/21 02:18:36;;;;;;;5.05;4.47;;;16.60;38.00;;;;;;5033417;28;20370;-55
2022/11/21 02:21:29;;;;;;;5.28;4.57;;;16.60;38.00;;;;;;5034259;28;20465;-56
2022/11/21 02:24:19;;;;;;;6.35;4.90;;;16.60;38.00;;;;;;5035711;28;20041;-57
2022/11/21 02:26:47;;;;;;;5.77;4.90;;;16.60;38.00;;;;;;5039113;28;20382;-54
2022/11/21 02:29:15;;;;;;;5.80;4.80;;;16.60;38.00;;;;;;5038854;28;20044;-58
2022/11/21 02:31:41;;;;;;;5.13;4.63;;;16.60;38.00;;;;;;5038675;28;20349;-56
2022/11/21 02:34:06;;;;;;;5.40;4.68;;;16.60;38.00;;;;;;5038748;28;20036;-58
2022/11/21 02:36:46;;;;;;;6.15;4.85;;;16.60;38.00;;;;;;5037084;28;20068;-56
2022/11/21 02:39:24;;;;;;;5.57;4.47;;;16.60;38.00;;;;;;5038570;28;20029;-57
2022/11/21 02:41:58;;;;;;;5.47;4.68;;;16.60;38.00;;;;;;5037379;28;20040;-58
2022/11/21 02:44:31;;;;;;;6.35;4.55;;;16.60;38.00;;;;;;5037166;28;20445;-59
2022/11/21 02:46:57;;;;;;;5.68;4.57;;;16.60;38.00;;;;;;5038816;28;20033;-58
2022/11/21 02:49:39;;;;;;;6.22;5.00;;;16.60;38.00;;;;;;5038431;28;20045;-56
2022/11/21 02:52:05;;;;;;;5.20;4.35;;;16.60;38.00;;;;;;5036968;28;20037;-54
2022/11/21 02:54:31;;;;;;;5.50;4.50;;;16.60;38.00;;;;;;5038415;28;20425;-58
2022/11/21 02:56:56;;;;;;;5.47;4.68;;;16.60;38.00;;;;;;5037242;28;20040;-55
2022/11/21 02:59:22;;;;;;;5.53;4.68;;;16.60;38.00;;;;;;5038730;28;20029;-59
2022/11/21 03:01:48;;;;;;;6.27;5.17;;;16.60;38.10;;;;;;5037760;28;20369;-57
2022/11/21 03:04:14;;;;;;;5.07;4.57;;;16.60;38.00;;;;;;5038376;28;20030;-53
2022/11/21 03:06:40;;;;;;;6.00;4.43;;;16.60;38.00;;;;;;5037903;28;20341;-52
2022/11/21 03:09:05;;;;;;;5.20;4.37;;;16.60;38.00;;;;;;5038356;28;20068;-58
2022/11/21 03:11:31;;;;;;;5.47;4.97;;;16.60;38.00;;;;;;5037884;28;20344;-56
2022/11/21 03:13:57;;;;;;;5.63;4.70;;;16.60;38.00;;;;;;5038083;28;20402;-55
2022/11/21 03:16:23;;;;;;;5.28;4.38;;;16.60;38.00;;;;;;5038114;28;20121;-59
2022/11/21 03:18:48;;;;;;;5.05;4.32;;;16.60;38.00;;;;;;5054905;28;20045;-58
2022/11/21 03:21:14;;;;;;;5.50;4.90;;;16.60;38.00;;;;;;5057598;28;20163;-57
2022/11/21 03:23:40;;;;;;;6.93;5.05;;;16.60;38.00;;;;;;5057416;28;20102;-54
2022/11/21 03:26:06;;;;;;;5.47;4.70;;;16.60;38.00;;;;;;5040091;28;20041;-57
2022/11/21 03:28:32;;;;;;;5.72;4.90;;;16.60;38.00;;;;;;5057819;28;20024;-58
2022/11/21 03:30:57;;;;;;;6.10;5.03;;;16.60;38.00;;;;;;5039830;28;20041;-58
2022/11/21 03:33:23;;;;;;;5.47;4.30;;;16.60;38.00;;;;;;5057901;28;20032;-56
2022/11/21 03:35:49;;;;;;;6.40;4.80;;;16.60;38.00;;;;;;5056766;28;20392;-55
2022/11/21 03:38:15;;;;;;;7.00;5.57;;;16.60;38.00;;;;;;5023003;28;20079;-57
2022/11/21 03:40:40;;;;;;;6.25;4.97;;;16.60;38.00;;;;;;5039827;28;20037;-57
2022/11/21 03:43:07;;;;;;;6.15;5.07;;;16.60;38.00;;;;;;5039433;28;20466;-55
2022/11/21 03:45:33;;;;;;;5.93;4.88;;;16.60;38.00;;;;;;5057205;28;20041;-55
2022/11/21 03:47:58;;;;;;;5.93;4.68;;;16.60;38.00;;;;;;5057343;28;20040;-56
2022/11/21 03:50:24;;;;;;;5.97;5.05;;;16.60;38.00;;;;;;5057199;28;20033;-58
2022/11/21 03:52:50;;;;;;;5.93;5.07;;;16.60;38.00;;;;;;5039294;28;20025;-56
2022/11/21 03:55:16;;;;;;;6.25;4.82;;;16.60;38.00;;;;;;5039983;28;20448;-54
2022/11/21 03:57:41;;;;;;;6.55;4.97;;;16.60;38.00;;;;;;5023399;28;20055;-59
2022/11/21 04:00:08;;;;;;;5.95;4.90;;;16.60;38.00;;;;;;5056833;28;20033;-56
2022/11/21 04:02:34;;;;;;;6.00;4.97;;;16.60;38.00;;;;;;5039613;28;20064;-57
2022/11/21 04:05:00;;;;;;;5.78;4.80;;;16.60;38.00;;;;;;5056746;28;20068;-56
2022/11/21 04:07:26;;;;;;;7.57;5.13;;;16.60;38.00;;;;;;5056688;28;20057;-56
2022/11/21 04:09:51;;;;;;;5.70;4.78;;;16.60;38.00;;;;;;5056830;28;20025;-53
2022/11/21 04:12:17;;;;;;;6.77;5.17;;;16.60;38.00;;;;;;5057598;28;20322;-57
2022/11/21 04:14:43;;;;;;;5.83;4.77;;;16.70;38.10;;;;;;5056622;28;20028;-56
2022/11/21 04:17:09;;;;;;;6.03;4.70;;;16.60;38.00;;;;;;5057123;28;20045;-56
2022/11/21 04:19:35;;;;;;;5.05;4.53;;;16.60;38.00;;;;;;5056914;28;20032;-59
2022/11/21 04:22:00;;;;;;;5.68;4.70;;;16.60;38.00;;;;;;5038693;28;20036;-59
2022/11/21 04:24:26;;;;;;;6.20;5.03;;;16.70;38.10;;;;;;5039087;28;20140;-59
2022/11/21 04:26:54;;;;;;;6.03;4.97;;;16.60;38.00;;;;;;5056309;28;20441;-58
2022/11/21 04:29:20;;;;;;;5.75;5.10;;;16.60;38.00;;;;;;5056368;28;20464;-57
2022/11/21 04:31:46;;;;;;;7.55;5.40;;;16.60;38.00;;;;;;5038676;28;20037;-56
2022/11/21 04:34:11;;;;;;;5.55;4.53;;;16.70;38.00;;;;;;5056239;28;20037;-58
2022/11/21 04:36:37;;;;;;;5.38;4.70;;;16.60;38.00;;;;;;5038449;28;20036;-56
2022/11/21 04:39:03;;;;;;;6.18;4.95;;;16.60;38.60;;;;;;5056377;28;20072;-58
2022/11/21 04:41:29;;;;;;;6.00;4.82;;;16.70;38.00;;;;;;5056463;28;20037;-56
2022/11/21 04:43:55;;;;;;;5.93;4.97;;;16.60;38.00;;;;;;5056270;28;20037;-59
2022/11/21 04:46:20;;;;;;;6.28;5.07;;;16.60;38.00;;;;;;5056009;28;20407;-55
2022/11/21 04:48:46;;;;;;;6.88;5.38;;;16.70;38.00;;;;;;5055847;28;20037;-57
2022/11/21 04:51:12;;;;;;;5.40;4.57;;;16.60;38.00;;;;;;5038168;28;20420;-56
2022/11/21 04:53:38;;;;;;;7.45;5.55;;;16.70;38.10;;;;;;5056316;28;20029;-57
2022/11/21 04:56:05;;;;;;;6.78;4.95;;;16.70;38.00;;;;;;5055917;28;20021;-58
2022/11/21 04:58:31;;;;;;;6.63;5.93;;;16.70;38.10;;;;;;5055770;28;20094;-57
2022/11/21 05:00:57;;;;;;;5.97;4.93;;;16.70;38.00;;;;;;5055907;28;20020;-56
2022/11/21 05:03:22;;;;;;;6.53;5.25;;;16.60;38.00;;;;;;5055885;28;20037;-53
2022/11/21 05:05:48;;;;;;;7.32;5.65;;;16.70;38.10;;;;;;5055179;28;20024;-54
2022/11/21 05:08:14;;;;;;;6.50;4.87;;;16.70;38.10;;;;;;5055560;28;20101;-57
2022/11/21 05:13:25;;;;;;;7.10;5.40;;;16.70;38.10;;;;;;5055250;28;20028;-55
2022/11/21 05:15:57;;;;;;;6.95;5.13;;;16.70;38.10;;;;;;5037909;28;20368;-60
2022/11/21 05:18:23;;;;;;;6.57;5.15;;;16.70;38.10;;;;;;5055181;28;20045;-59
2022/11/21 05:20:49;;;;;;;6.75;5.22;;;16.70;38.10;;;;;;5055765;28;20127;-56
2022/11/21 05:23:15;;;;;;;6.47;5.28;;;16.70;38.10;;;;;;5054989;28;20098;-57
2022/11/21 05:25:41;;;;;;;7.10;5.20;;;16.70;38.10;;;;;;5054918;28;20044;-58
2022/11/21 05:28:06;;;;;;;7.70;5.85;;;16.70;38.10;;;;;;5055273;28;20033;-55
2022/11/21 05:30:32;;;;;;;5.93;5.20;;;16.70;38.10;;;;;;5054891;28;20064;-58
2022/11/21 05:32:58;;;;;;;6.88;5.13;;;16.70;38.10;;;;;;5054995;28;20029;-56
2022/11/21 05:35:26;;;;;;;6.43;5.22;;;16.70;38.10;;;;;;5055172;28;20095;-59
2022/11/21 05:37:58;;;;;;;8.05;5.97;;;16.70;38.10;;;;;;5055655;28;20336;-59
2022/11/21 05:40:25;;;;;;;7.47;5.80;;;16.70;38.20;;;;;;5055278;28;20092;-56
2022/11/21 05:45:35;;;;;;;7.63;5.68;;;16.70;38.20;;;;;;5055191;28;20563;-60
2022/11/21 05:48:01;;;;;;;7.30;5.53;;;16.70;38.20;;;;;;5037857;28;20108;-60
2022/11/21 05:50:26;;;;;;;7.00;5.45;;;16.70;38.20;;;;;;5054827;28;20028;-56
2022/11/21 05:52:52;;;;;;;7.50;5.63;;;16.70;38.20;;;;;;5037348;28;20087;-56
2022/11/21 05:55:18;;;;;;;7.45;5.63;;;16.70;38.20;;;;;;5020715;28;20036;-57
2022/11/21 05:57:44;;;;;;;7.80;5.63;;;16.70;38.20;;;;;;5055009;28;20029;-57
2022/11/21 06:00:10;;;;;;;8.85;5.85;;;16.70;38.20;;;;;;5054873;28;20033;-55
2022/11/21 06:05:20;;;;;;;7.95;6.20;;;16.70;38.20;;;;;;5037173;28;20049;-59
2022/11/21 06:07:46;;;;;;;7.75;5.82;;;16.70;38.20;;;;;;5054808;28;20414;-57
2022/11/21 06:10:12;;;;;;;8.00;5.75;;;16.70;38.30;;;;;;5054888;28;20056;-58
2022/11/21 06:12:37;;;;;;;7.60;6.13;;;16.70;38.30;;;;;;5054805;28;20082;-59
2022/11/21 06:15:03;;;;;;;7.83;6.00;;;16.70;38.30;;;;;;5037093;28;20150;-55
2022/11/21 06:17:29;;;;;;;7.80;6.15;;;16.70;38.30;;;;;;5054243;28;20045;-55
2022/11/21 06:19:55;;;;;;;7.90;6.60;;;16.70;38.30;;;;;;5054491;28;20028;-60
2022/11/21 06:22:21;;;;;;;8.20;6.50;;;16.70;38.30;;;;;;5054848;28;20344;-58
2022/11/21 06:24:46;;;;;;;9.00;6.60;;;16.70;38.30;;;;;;5054935;28;20108;-58
2022/11/21 06:27:12;;;;;;;8.20;6.30;;;16.70;38.40;;;;;;5054862;28;20033;-59
2022/11/21 06:29:38;;;;;;;8.18;6.22;;;16.70;38.40;;;;;;5054081;28;20040;-56
2022/11/21 06:32:04;;;;;;;8.23;6.30;;;16.80;38.50;;;;;;5054635;28;20125;-56
2022/11/21 06:34:30;;;;;;;9.10;6.80;;;16.70;38.40;;;;;;5054076;28;20044;-56
2022/11/21 06:36:55;;;;;;;7.72;6.35;;;16.70;38.40;;;;;;5036981;28;20457;-60
2022/11/21 06:39:21;;;;;;;8.83;6.37;;;16.70;38.40;;;;;;5037028;28;20032;-60
2022/11/21 06:41:49;;;;;;;9.23;6.63;;;16.80;38.50;;;;;;5054153;28;20040;-56
2022/11/21 06:44:18;;;;;;;8.60;6.32;;;16.80;38.50;;;;;;5054144;28;20041;-56
2022/11/21 06:46:44;;;;;;;8.40;6.53;;;16.80;38.50;;;;;;5053971;28;20039;-54
2022/11/21 06:49:10;;;;;;;9.48;6.85;;;16.70;38.50;;;;;;5054382;28;20423;-55
2022/11/21 06:51:36;;;;;;;9.15;6.93;;;16.80;38.50;;;;;;5054134;28;20111;-58
2022/11/21 06:54:02;;;;;;;9.00;6.55;;;16.80;38.60;;;;;;5036763;28;20120;-57
2022/11/21 06:56:30;;;;;;;8.00;6.47;;;16.80;38.60;;;;;;5053931;28;20037;-57
2022/11/21 06:58:56;;;;;;;9.07;6.70;;;16.80;38.60;;;;;;5054180;28;20083;-58
2022/11/21 07:01:22;;;;;;;7.00;5.50;;;16.80;38.60;;;;;;5036816;28;20063;-57
2022/11/21 07:03:48;;;;;;;7.88;6.40;;;16.80;38.60;;;;;;5054277;28;20043;-56
2022/11/21 07:06:14;;;;;;;8.13;5.88;;;16.70;38.60;;;;;;5036589;28;20045;-56
2022/11/21 07:08:40;;;;;;;8.10;6.00;;;16.80;38.60;;;;;;5036406;28;20459;-56
2022/11/21 07:11:11;;;;;;;8.40;6.13;;;16.80;38.60;;;;;;5056007;28;20033;-57
2022/11/21 07:13:37;;;;;;;8.18;6.10;;;16.70;38.60;;;;;;5057618;28;20104;-56
2022/11/21 07:16:09;;;;;;;9.52;6.50;;;16.80;38.70;;;;;;5039888;28;20116;-56
2022/11/21 07:18:35;;;;;;;7.40;5.80;;;16.80;38.70;;;;;;5036372;28;20381;-59
2022/11/21 07:21:03;;;;;;;7.53;6.18;;;16.80;38.70;;;;;;5037429;28;20400;-54
2022/11/21 07:23:30;;;;;;;7.43;5.90;;;16.80;38.70;;;;;;5037236;28;20099;-58
2022/11/21 07:26:09;;;;;;;7.72;5.95;;;16.80;38.70;;;;;;5037594;28;20053;-59
2022/11/21 07:28:35;;;;;;;7.67;5.93;;;16.80;38.70;;;;;;5037465;28;20033;-59
2022/11/21 07:31:02;;;;;;;6.83;5.37;;;16.80;38.70;;;;;;5036568;28;20032;-60
2022/11/21 07:33:28;;;;;;;7.55;5.63;;;16.80;38.70;;;;;;5037652;28;20098;-55
2022/11/21 07:35:57;;;;;;;6.68;5.32;;;16.80;38.70;;;;;;5037505;28;20116;-58
2022/11/21 07:38:25;;;;;;;6.47;5.30;;;16.80;38.70;;;;;;5037146;28;20052;-58
2022/11/21 07:40:51;;;;;;;6.80;5.88;;;16.80;38.70;;;;;;5037643;28;20502;-59
2022/11/21 07:43:19;;;;;;;6.63;5.30;;;16.80;38.70;;;;;;5036246;28;20103;-56
2022/11/21 07:45:45;;;;;;;6.82;5.47;;;16.80;38.70;;;;;;5037385;28;20510;-59
2022/11/21 07:48:11;;;;;;;6.57;5.47;;;16.80;38.70;;;;;;5036149;28;20029;-55
2022/11/21 07:50:38;;;;;;;7.17;5.50;;;16.80;38.70;;;;;;5037246;28;20033;-56
2022/11/21 07:53:05;;;;;;;7.30;5.40;;;16.80;38.70;;;;;;5019233;28;20112;-56
2022/11/21 07:55:31;;;;;;;7.70;5.20;;;16.80;38.70;;;;;;5037123;28;20120;-57
2022/11/21 07:58:06;;;;;;;7.45;5.75;;;16.80;38.80;;;;;;5037118;28;20105;-59
2022/11/21 08:00:34;;;;;;;7.45;5.45;;;16.80;38.80;;;;;;5037399;28;20123;-58
2022/11/21 08:03:00;;;;;;;7.50;5.33;;;16.80;38.80;;;;;;5036206;28;20034;-57
2022/11/21 08:05:26;;;;;;;7.82;6.03;;;16.80;38.80;;;;;;5035674;28;20380;-59
2022/11/21 08:07:52;;;;;;;7.53;5.63;;;16.80;38.80;;;;;;5036435;28;20027;-58
2022/11/21 08:10:18;;;;;;;7.32;5.72;;;16.80;38.80;;;;;;5037017;28;20479;-57
2022/11/21 08:12:45;;;;;;;7.18;5.75;;;16.80;38.80;;;;;;5036332;28;20033;-57
2022/11/21 08:15:11;;;;;;;7.43;5.88;;;16.80;38.80;;;;;;5036421;28;20033;-58
2022/11/21 08:17:37;;;;;;;7.30;5.68;;;16.80;38.80;;;;;;5011645;28;20099;-59
2022/11/21 08:20:05;;;;;;;7.07;5.53;;;16.80;38.80;;;;;;5016400;28;20038;-57
2022/11/21 08:22:31;;;;;;;7.67;5.40;;;16.80;38.80;;;;;;5016629;28;20049;-59
2022/11/21 08:24:57;;;;;;;7.40;5.33;;;16.80;38.80;;;;;;5016721;28;20060;-58
2022/11/21 08:27:23;;;;;;;6.73;5.30;;;16.80;38.80;;;;;;5015554;28;20461;-54
2022/11/21 08:29:49;;;;;;;7.18;5.30;;;16.80;38.80;;;;;;5015511;28;20026;-56
2022/11/21 08:32:15;;;;;;;7.23;5.27;;;16.80;38.80;;;;;;5016237;28;20041;-54
2022/11/21 08:34:40;;;;;;;6.30;5.00;;;16.80;38.90;;;;;;5016930;28;20034;-53
2022/11/21 08:37:07;;;;;;;6.97;5.07;;;16.80;38.90;;;;;;5016220;28;20113;-57
2022/11/21 08:39:33;;;;;;;7.27;5.47;;;16.80;38.90;;;;;;5016236;28;20160;-56
2022/11/21 08:42:01;;;;;;;5.70;4.73;;;16.80;38.90;;;;;;5016541;28;20062;-55
2022/11/21 08:44:31;;;;;;;6.50;4.78;;;16.80;38.90;;;;;;5015509;28;20053;-55
2022/11/21 08:46:58;;;;;;;6.47;4.90;;;16.80;38.90;;;;;;5016571;28;20048;-57
2022/11/21 08:49:24;;;;;;;6.57;4.30;;;16.80;38.90;;;;;;5016614;28;20030;-58
2022/11/21 08:51:51;;;;;;;7.35;5.15;;;16.80;39.00;;;;;;5016189;28;20033;-56
2022/11/21 08:54:17;;;;;;;6.82;4.30;;;16.80;39.00;;;;;;5016257;28;20026;-59
2022/11/21 08:56:43;;;;;;;6.55;5.03;;;16.80;39.00;;;;;;5014968;28;20507;-59
2022/11/21 08:59:09;;;;;;;5.53;4.50;;;16.80;39.00;;;;;;5016341;28;20045;-55
2022/11/21 09:01:36;;;;;;;6.75;5.05;;;16.80;39.00;;;;;;5014981;28;20445;-56
2022/11/21 09:04:03;;;;;;;7.43;4.97;;;16.80;39.10;;;;;;5016001;28;20034;-58
2022/11/21 09:06:29;;;;;;;6.93;5.28;;;16.80;39.10;;;;;;5014845;28;20038;-54
2022/11/21 09:08:54;;;;;;;6.57;4.90;;;16.80;39.10;;;;;;5016010;28;20026;-53
2022/11/21 09:11:20;;;;;;;6.53;5.20;;;16.80;39.10;;;;;;5016197;28;20037;-59
2022/11/21 09:18:01;;;;;;;5.65;4.68;;;16.80;39.10;;;;;;5015848;28;20029;-60
2022/11/21 09:19:20;;;;;;;6.93;4.93;;;16.80;39.20;;;;;;5014629;28;20374;-59
2022/11/21 09:21:50;;;;;;;6.47;5.17;;;16.80;39.20;;;;;;5015604;28;20037;-58
2022/11/21 09:24:17;;;;;;;6.38;5.07;;;16.80;39.20;;;;;;5015981;28;20172;-59
2022/11/21 09:26:43;;;;;;;6.55;5.05;;;16.90;39.30;;;;;;5014540;28;20050;-58
2022/11/21 09:29:13;;;;;;;6.63;4.90;;;16.80;39.30;;;;;;5015699;28;20034;-57
2022/11/21 09:31:43;;;;;;;6.95;5.00;;;16.80;39.30;;;;;;5015760;28;20044;-52
2022/11/21 09:34:09;;;;;;;5.77;4.93;;;16.90;39.40;;;;;;5014282;28;20042;-54
2022/11/21 09:36:35;;;;;;;6.18;4.63;;;16.80;39.30;;;;;;5014637;28;20030;-57
2022/11/21 09:39:01;;;;;;;7.03;4.80;;;16.80;39.40;;;;;;5013975;28;20036;-57
2022/11/21 09:41:51;;;;;;;6.72;4.95;;;16.90;39.40;;;;;;5015165;28;20350;-60
2022/11/21 09:44:32;;;;;;;6.35;5.18;;;16.80;39.40;;;;;;5015021;28;20036;-58
2022/11/21 09:47:15;;;;;;;5.30;4.13;;;16.90;39.50;;;;;;5015554;28;20045;-58
2022/11/21 09:49:46;;;;;;;5.22;4.40;;;16.80;39.40;;;;;;5015479;28;20117;-58
2022/11/21 09:52:15;;;;;;;6.55;4.75;;;16.90;39.60;;;;;;5014290;28;20069;-58
2022/11/21 09:54:50;;;;;;;6.05;4.80;;;16.90;39.60;;;;;;5014923;28;20030;-55
2022/11/21 09:57:20;;;;;;;6.90;4.15;;;16.90;39.70;;;;;;5014606;28;20026;-58
2022/11/21 09:59:50;;;;;;;6.00;4.70;;;16.90;39.70;;;;;;5014087;28;20365;-57
2022/11/21 10:02:22;;;;;;;5.63;4.35;;;16.90;39.70;;;;;;5014838;28;20160;-56
2022/11/21 10:04:49;;;;;;;7.10;5.05;;;16.90;39.80;;;;;;5014187;28;20049;-57
2022/11/21 10:07:27;;;;;;;6.00;4.55;;;16.90;39.80;;;;;;5013984;28;20030;-56
2022/11/21 10:10:08;;;;;;;6.85;4.68;;;16.90;39.80;;;;;;5015271;28;20026;-56
2022/11/21 10:12:57;;;;;;;6.82;4.88;;;16.90;39.90;;;;;;5013853;28;20065;-58
2022/11/21 10:15:30;;;;;;;6.00;4.72;;;16.90;39.90;;;;;;5003338;28;20042;-53
2022/11/21 10:18:03;;;;;;;6.43;4.60;;;16.90;40.00;;;;;;5024069;28;20065;-52
2022/11/21 10:21:00;;;;;;;6.45;4.65;;;16.90;40.00;;;;;;5034394;28;20026;-55
2022/11/21 10:23:29;;;;;;;7.35;4.90;;;16.90;40.00;;;;;;5033631;28;20040;-57
2022/11/21 10:26:15;;;;;;;6.40;4.60;;;16.90;40.10;;;;;;5034649;28;20029;-55
2022/11/21 10:28:55;;;;;;;6.43;4.45;;;16.90;40.10;;;;;;5034617;28;20029;-55
2022/11/21 10:31:21;;;;;;;7.20;5.10;;;16.90;40.20;;;;;;5033279;28;20120;-57
2022/11/21 10:33:50;;;;;;;6.93;5.47;;;16.90;40.20;;;;;;5034827;28;20036;-56
2022/11/21 10:36:19;;;;;;;7.05;5.13;;;16.90;40.30;;;;;;5033840;28;20336;-56
2022/11/21 10:38:49;;;;;;;7.17;5.20;;;16.90;40.30;;;;;;5033266;28;20029;-55
2022/11/21 10:41:23;;;;;;;7.20;4.83;;;16.90;40.30;;;;;;5035029;28;20102;-59
2022/11/21 10:47:01;;;;;;;7.00;4.67;;;16.90;40.40;;;;;;5038408;28;20041;-56
2022/11/21 10:49:32;;;;;;;7.38;5.70;;;16.90;40.50;;;;;;5038460;28;20449;-56
2022/11/21 10:52:18;;;;;;;7.68;4.90;;;16.90;40.50;;;;;;5037897;28;20029;-54
2022/11/21 10:55:11;;;;;;;8.15;5.53;;;16.90;41.20;;;;;;5038102;28;20061;-57
2022/11/21 10:57:47;;;;;;;6.72;5.38;;;16.90;40.60;;;;;;5035272;28;20049;-59
2022/11/21 11:00:13;;;;;;;8.90;5.90;;;16.90;40.60;;;;;;5038283;28;20037;-56
2022/11/21 11:02:59;;;;;;;7.80;5.73;;;16.90;40.70;;;;;;5037692;28;20089;-55
2022/11/21 11:05:35;;;;;;;8.45;5.97;;;16.90;40.80;;;;;;5038353;28;20083;-56
2022/11/21 11:08:11;;;;;;;8.40;6.20;;;16.90;40.80;;;;;;5037648;28;20035;-58
2022/11/21 11:10:39;;;;;;;8.65;5.82;;;16.90;40.90;;;;;;5037872;28;20109;-58
2022/11/21 11:13:35;;;;;;;8.85;5.97;;;16.90;40.90;;;;;;5037816;28;20049;-57
2022/11/21 11:16:14;;;;;;;8.57;5.65;;;16.90;40.90;;;;;;5037766;28;20030;-60
2022/11/21 11:18:59;;;;;;;8.43;6.30;;;16.90;41.00;;;;;;5053804;28;20047;-57
2022/11/21 11:21:40;;;;;;;8.18;6.18;;;16.90;41.10;;;;;;5057180;28;20184;-57
2022/11/21 11:24:09;;;;;;;8.45;6.00;;;16.90;41.10;;;;;;5057482;28;20059;-60
2022/11/21 11:26:49;;;;;;;10.27;6.05;;;16.90;41.20;;;;;;5023092;28;20083;-57
2022/11/21 11:29:18;;;;;;;8.05;5.80;;;16.90;41.20;;;;;;5057126;28;20076;-57
2022/11/21 11:32:19;;;;;;;8.75;5.95;;;16.90;41.30;;;;;;5056966;28;20356;-58
2022/11/21 11:35:00;;;;;;;9.57;6.38;;;16.90;41.30;;;;;;5057600;28;20122;-58
2022/11/21 11:37:26;;;;;;;7.95;5.97;;;16.90;41.40;;;;;;5057410;28;20423;-58
2022/11/21 11:40:15;;;;;;;8.65;6.60;;;16.90;41.40;;;;;;5057483;28;20036;-58
2022/11/21 11:48:09;;;;;;;9.93;6.30;;;16.90;41.60;;;;;;5057012;28;20374;-56
2022/11/21 11:50:43;;;;;;;7.95;5.75;;;16.90;41.70;;;;;;5057233;28;20025;-59
2022/11/21 11:53:29;;;;;;;8.35;6.20;;;16.90;41.80;;;;;;5056776;28;20048;-55
2022/11/21 11:56:19;;;;;;;9.65;6.43;;;17.00;42.00;;;;;;5056799;28;20041;-57
2022/11/21 11:59:10;;;;;;;11.02;6.32;;;16.90;41.90;;;;;;5039346;28;20044;-57
2022/11/21 12:01:44;;;;;;;11.05;7.07;;;16.90;42.00;;;;;;5057100;28;20348;-57
2022/11/21 12:04:20;;;;;;;9.02;7.00;;;16.90;42.10;;;;;;5038869;28;20091;-55
2022/11/21 12:06:58;;;;;;;9.65;6.60;;;16.90;42.20;;;;;;5056390;28;20037;-57
2022/11/21 12:09:33;;;;;;;9.02;6.43;;;17.00;42.30;;;;;;5056575;28;20043;-55
2022/11/21 12:12:32;;;;;;;10.07;6.60;;;17.00;42.40;;;;;;5057274;28;20025;-59
2022/11/21 12:18:19;;;;;;;8.70;6.75;;;16.90;42.40;;;;;;5038956;28;20081;-58
2022/11/21 12:21:07;;;;;;;11.65;6.78;;;17.00;42.50;;;;;;5038867;28;20044;-58
2022/11/21 12:23:48;;;;;;;9.40;6.05;;;17.00;42.50;;;;;;5056535;28;20044;-57
2022/11/21 12:26:19;;;;;;;9.20;5.72;;;17.00;42.60;;;;;;5056405;28;20044;-58
2022/11/21 12:29:22;;;;;;;9.20;6.25;;;17.00;42.60;;;;;;5056465;28;20025;-59
2022/11/21 12:32:27;;;;;;;10.48;6.65;;;17.00;42.70;;;;;;5056290;28;20425;-57
2022/11/21 12:34:59;;;;;;;9.63;6.40;;;17.00;42.70;;;;;;5056659;28;20037;-58
2022/11/21 12:37:46;;;;;;;9.98;6.53;;;17.00;42.90;;;;;;5056217;28;20051;-59
2022/11/21 12:40:18;;;;;;;11.95;6.47;;;17.00;42.90;;;;;;5055808;28;20033;-56
2022/11/21 12:43:17;;;;;;;10.82;5.68;;;17.00;43.00;;;;;;5038477;28;20106;-56
2022/11/21 12:45:56;;;;;;;8.25;5.43;;;17.00;43.00;;;;;;5056215;28;20056;-57
2022/11/21 12:54:37;;;;;;;7.47;5.60;;;17.00;43.20;;;;;;5056374;28;20040;-57
2022/11/21 12:57:18;;;;;;;8.50;5.32;;;17.00;43.20;;;;;;5038229;28;20072;-60
2022/11/21 13:00:07;;;;;;;7.95;6.13;;;17.00;43.30;;;;;;5055702;28;20032;-55
2022/11/21 13:03:02;;;;;;;7.40;5.07;;;17.00;43.40;;;;;;5037971;28;20147;-58
2022/11/21 13:05:50;;;;;;;7.35;5.22;;;17.00;43.50;;;;;;5055579;28;20368;-56
2022/11/21 13:08:21;;;;;;;8.93;5.35;;;17.00;43.50;;;;;;5054676;28;20040;-58
2022/11/21 13:13:55;;;;;;;8.13;5.30;;;17.00;43.60;;;;;;5055409;28;20520;-59
2022/11/21 13:16:38;;;;;;;7.82;4.47;;;17.00;43.60;;;;;;5055339;28;20044;-57
2022/11/21 13:19:43;;;;;;;8.10;4.68;;;17.00;43.70;;;;;;5054955;28;20064;-58
2022/11/21 13:22:36;;;;;;;5.83;3.97;;;17.00;43.70;;;;;;5037389;28;20431;-57
2022/11/21 13:25:09;;;;;;;7.80;4.25;;;17.00;43.70;;;;;;5054896;28;20037;-51
2022/11/21 13:27:37;;;;;;;6.78;4.03;;;17.00;43.80;;;;;;5055453;28;20040;-60
2022/11/21 13:30:06;;;;;;;5.95;4.10;;;17.00;43.80;;;;;;5055074;28;20025;-57
2022/11/21 13:32:48;;;;;;;5.47;3.63;;;17.00;43.80;;;;;;5055030;28;20155;-58